Time;durP1;ratioP1;P1;durP2;ratioP2;P2;SDS_P1;SDS_P2;PMS_P1;PMS_P2;Temp;Humidity;BMP_temperature;BMP_pressure;BME280_temperature;BME280_humidity;BME280_pressure;Samples;Min_cycle;Max_cycle;Signal;HPM_P1;HPM_P2
2022/12/17 13:06:03;;;;;;;39.80;22.20;;;;;;;;;;4999459;28;20073;-80
2022/12/17 13:08:29;;;;;;;40.05;22.05;;;;;;;;;;4999580;28;20107;-80
2022/12/17 13:10:55;;;;;;;44.22;23.27;;;;;;;;;;5017946;28;20030;-81
2022/12/17 13:13:34;;;;;;;44.15;23.98;;;;;;;;;;5030241;28;20026;-80
2022/12/17 13:16:36;;;;;;;38.45;21.35;;;;;;;;;;5026448;28;20072;-80
2022/12/17 13:19:17;;;;;;;44.92;23.48;;;;;;;;;;4985318;28;20043;-80
2022/12/17 13:21:43;;;;;;;43.60;23.30;;;;;;;;;;5006704;28;20033;-81
2022/12/17 13:24:10;;;;;;;46.45;24.23;;;;;;;;;;5023230;28;20038;-81
2022/12/17 13:26:39;;;;;;;41.92;23.13;;;;;;;;;;5019534;28;20017;-80
2022/12/17 13:29:23;;;;;;;41.13;23.63;;;;;;;;;;5019906;28;20030;-81
2022/12/17 13:31:57;;;;;;;48.85;24.00;;;;;;;;;;5016463;28;20040;-82
2022/12/17 13:34:42;;;;;;;45.42;22.80;;;;;;;;;;5018021;28;20025;-80
2022/12/17 13:37:37;;;;;;;42.90;22.25;;;;;;;;;;4999988;28;20046;-81
2022/12/17 13:40:17;;;;;;;44.65;23.02;;;;;;;;;;5003075;28;20106;-81
2022/12/17 13:42:44;;;;;;;46.22;23.80;;;;;;;;;;5003665;28;20065;-81
2022/12/17 13:45:15;;;;;;;45.35;25.88;;;;;;;;;;5019169;28;20041;-83
2022/12/17 13:47:41;;;;;;;45.00;23.92;;;;;;;;;;5019238;28;20073;-81
2022/12/17 13:50:34;;;;;;;45.22;24.70;;;;;;;;;;5024438;28;20026;-81
2022/12/17 13:53:09;;;;;;;42.78;23.52;;;;;;;;;;5020076;28;20046;-82
2022/12/17 13:55:35;;;;;;;40.85;21.98;;;;;;;;;;5020261;28;20036;-82
2022/12/17 13:58:01;;;;;;;49.42;23.92;;;;;;;;;;5016493;28;20034;-82
2022/12/17 14:00:28;;;;;;;40.80;23.27;;;;;;;;;;5026941;28;20051;-82
2022/12/17 14:02:54;;;;;;;50.85;24.88;;;;;;;;;;5007694;28;20031;-82
2022/12/17 14:05:23;;;;;;;44.70;24.85;;;;;;;;;;4999912;28;20436;-82
2022/12/17 14:07:49;;;;;;;49.85;24.52;;;;;;;;;;5000396;28;20031;-82
2022/12/17 14:10:16;;;;;;;50.05;25.20;;;;;;;;;;4990721;28;20014;-82
2022/12/17 14:12:42;;;;;;;45.63;23.77;;;;;;;;;;5016690;28;20464;-81
2022/12/17 14:15:27;;;;;;;44.42;23.73;;;;;;;;;;5028316;28;20551;-82
2022/12/17 14:17:53;;;;;;;51.45;25.05;;;;;;;;;;5031435;28;20033;-81
2022/12/17 14:20:21;;;;;;;51.00;26.67;;;;;;;;;;5018211;28;20106;-81
2022/12/17 14:22:53;;;;;;;43.25;25.45;;;;;;;;;;5026948;28;20018;-83
2022/12/17 14:25:23;;;;;;;52.30;25.70;;;;;;;;;;5023766;28;20046;-83
2022/12/17 14:27:52;;;;;;;45.45;24.73;;;;;;;;;;5006714;28;20030;-81
2022/12/17 14:30:20;;;;;;;45.60;24.27;;;;;;;;;;5022814;28;20030;-80
2022/12/17 14:32:46;;;;;;;45.83;22.95;;;;;;;;;;5024333;28;20052;-81
2022/12/17 14:35:26;;;;;;;40.95;22.65;;;;;;;;;;5005020;28;20030;-81
2022/12/17 14:37:52;;;;;;;46.33;22.70;;;;;;;;;;5023659;28;20030;-80
2022/12/17 14:40:18;;;;;;;46.35;23.67;;;;;;;;;;5006794;28;20498;-80
2022/12/17 14:42:44;;;;;;;45.13;22.40;;;;;;;;;;5024529;28;20064;-81
2022/12/17 14:45:14;;;;;;;49.88;24.95;;;;;;;;;;5021492;28;20136;-81
2022/12/17 14:47:40;;;;;;;50.25;26.25;;;;;;;;;;5022686;28;20392;-81
2022/12/17 14:50:12;;;;;;;57.75;28.08;;;;;;;;;;5022602;28;20037;-80
2022/12/17 14:52:57;;;;;;;49.92;25.48;;;;;;;;;;5004286;28;20033;-81
2022/12/17 14:55:29;;;;;;;58.30;26.95;;;;;;;;;;5021337;28;20026;-81
2022/12/17 14:58:16;;;;;;;52.05;26.13;;;;;;;;;;5020507;28;20115;-82
2022/12/17 15:00:47;;;;;;;49.22;25.55;;;;;;;;;;5022684;28;20026;-82
2022/12/17 15:03:18;;;;;;;46.97;25.13;;;;;;;;;;5022984;28;20037;-81
2022/12/17 15:05:47;;;;;;;43.13;23.85;;;;;;;;;;5022530;28;20026;-82
2022/12/17 15:08:13;;;;;;;46.10;23.02;;;;;;;;;;5021289;28;20425;-81
2022/12/17 15:10:39;;;;;;;47.33;24.10;;;;;;;;;;5020359;28;20060;-81
2022/12/17 15:13:07;;;;;;;46.00;24.38;;;;;;;;;;5021129;28;20037;-84
2022/12/17 15:15:33;;;;;;;46.00;23.75;;;;;;;;;;5025425;28;20026;-82
2022/12/17 15:17:59;;;;;;;56.53;28.52;;;;;;;;;;5025210;28;20044;-83
2022/12/17 15:20:25;;;;;;;49.17;25.55;;;;;;;;;;5021504;28;20026;-83
2022/12/17 15:22:51;;;;;;;49.80;25.83;;;;;;;;;;5022376;28;20491;-84
2022/12/17 15:25:19;;;;;;;50.83;26.88;;;;;;;;;;5024361;28;20072;-82
2022/12/17 15:27:45;;;;;;;52.50;28.15;;;;;;;;;;5031675;28;20034;-82
2022/12/17 15:30:16;;;;;;;46.90;25.40;;;;;;;;;;5027703;28;20026;-82
2022/12/17 15:32:42;;;;;;;55.13;26.65;;;;;;;;;;5027930;28;20539;-83
2022/12/17 15:35:09;;;;;;;54.92;25.33;;;;;;;;;;5027161;28;20032;-83
2022/12/17 15:37:36;;;;;;;55.13;27.92;;;;;;;;;;5026382;28;20085;-85
2022/12/17 15:40:02;;;;;;;57.53;28.85;;;;;;;;;;5028308;28;20428;-85
2022/12/17 15:45:13;;;;;;;61.92;30.63;;;;;;;;;;5022252;28;20058;-84
2022/12/17 15:47:39;;;;;;;56.10;27.40;;;;;;;;;;5001722;28;20487;-82
2022/12/17 15:50:05;;;;;;;59.45;30.17;;;;;;;;;;5004049;28;20026;-82
2022/12/17 15:52:32;;;;;;;56.90;29.88;;;;;;;;;;5001840;28;20168;-83
2022/12/17 15:54:58;;;;;;;57.58;29.38;;;;;;;;;;5002100;28;20546;-82
2022/12/17 15:57:24;;;;;;;58.15;28.88;;;;;;;;;;5020933;28;20033;-84
2022/12/17 15:59:56;;;;;;;60.35;29.92;;;;;;;;;;4993419;28;20152;-83
2022/12/17 16:02:22;;;;;;;56.55;29.08;;;;;;;;;;5019107;28;20051;-82
2022/12/17 16:04:48;;;;;;;59.75;28.25;;;;;;;;;;5004697;28;20034;-82
2022/12/17 16:07:15;;;;;;;56.50;28.10;;;;;;;;;;5003397;28;20034;-82
2022/12/17 16:09:41;;;;;;;57.42;29.35;;;;;;;;;;5005547;28;20066;-81
2022/12/17 16:12:07;;;;;;;51.45;26.15;;;;;;;;;;5022142;28;20026;-82
2022/12/17 16:14:33;;;;;;;52.13;26.45;;;;;;;;;;5001434;28;20117;-82
2022/12/17 16:16:59;;;;;;;52.25;26.65;;;;;;;;;;5021014;28;20049;-83
2022/12/17 16:19:26;;;;;;;55.50;25.90;;;;;;;;;;5019975;28;20398;-82
2022/12/17 16:21:52;;;;;;;49.30;26.45;;;;;;;;;;5021078;28;20026;-84
2022/12/17 16:24:18;;;;;;;54.42;29.05;;;;;;;;;;5024179;28;20065;-84
2022/12/17 16:26:44;;;;;;;71.03;32.88;;;;;;;;;;5007485;28;20614;-83
2022/12/17 16:29:10;;;;;;;71.13;33.30;;;;;;;;;;5026430;28;20030;-82
2022/12/17 16:31:36;;;;;;;62.35;30.38;;;;;;;;;;5027814;28;20061;-82
2022/12/17 16:34:02;;;;;;;73.68;33.67;;;;;;;;;;5007479;28;20044;-83
2022/12/17 16:36:28;;;;;;;66.88;33.45;;;;;;;;;;5024451;28;20377;-81
2022/12/17 16:38:54;;;;;;;66.15;33.55;;;;;;;;;;5010633;28;20053;-82
2022/12/17 16:41:21;;;;;;;69.28;34.97;;;;;;;;;;5012960;28;20029;-82
2022/12/17 16:43:47;;;;;;;62.15;31.92;;;;;;;;;;5017803;28;20077;-82
2022/12/17 16:46:26;;;;;;;77.55;35.53;;;;;;;;;;5019239;28;20034;-82
2022/12/17 16:48:52;;;;;;;62.58;30.65;;;;;;;;;;5018856;28;20018;-83
2022/12/17 16:51:19;;;;;;;59.40;29.48;;;;;;;;;;5035707;28;20060;-83
2022/12/17 16:53:46;;;;;;;56.22;28.83;;;;;;;;;;5010246;28;20392;-82
2022/12/17 16:56:16;;;;;;;54.00;28.00;;;;;;;;;;4993346;28;20030;-83
2022/12/17 16:58:42;;;;;;;58.30;28.65;;;;;;;;;;5017417;28;20053;-82
2022/12/17 17:01:09;;;;;;;55.63;25.63;;;;;;;;;;4984541;28;20057;-83
2022/12/17 17:03:37;;;;;;;51.22;24.88;;;;;;;;;;5018950;28;20148;-82
2022/12/17 17:06:03;;;;;;;50.10;24.42;;;;;;;;;;5019131;28;20037;-82
2022/12/17 17:08:30;;;;;;;48.35;24.45;;;;;;;;;;5016438;28;20430;-82
2022/12/17 17:10:56;;;;;;;52.45;24.80;;;;;;;;;;5021963;28;20441;-82
2022/12/17 17:13:22;;;;;;;53.53;26.20;;;;;;;;;;5019018;28;20404;-83
2022/12/17 17:15:48;;;;;;;49.80;26.15;;;;;;;;;;5022240;28;20049;-83
2022/12/17 17:18:14;;;;;;;42.35;21.40;;;;;;;;;;5018505;28;20038;-82
2022/12/17 17:20:40;;;;;;;41.30;20.40;;;;;;;;;;5000729;28;20033;-80
2022/12/17 17:23:06;;;;;;;45.05;21.98;;;;;;;;;;5016867;28;20017;-81
2022/12/17 17:25:32;;;;;;;42.78;20.55;;;;;;;;;;5016758;28;20026;-80
2022/12/17 17:27:58;;;;;;;45.05;22.15;;;;;;;;;;5019893;28;20057;-81
2022/12/17 17:30:24;;;;;;;39.70;21.60;;;;;;;;;;5016742;28;20034;-80
2022/12/17 17:32:50;;;;;;;45.28;21.60;;;;;;;;;;5017456;28;20037;-80
2022/12/17 17:35:16;;;;;;;44.03;21.17;;;;;;;;;;4999591;28;20103;-80
2022/12/17 17:37:42;;;;;;;40.13;21.00;;;;;;;;;;5020639;28;20034;-81
2022/12/17 17:40:09;;;;;;;43.78;21.58;;;;;;;;;;5000901;28;20057;-80
2022/12/17 17:42:35;;;;;;;38.72;21.25;;;;;;;;;;5016667;28;20126;-82
2022/12/17 17:45:02;;;;;;;37.35;19.17;;;;;;;;;;5021360;28;20030;-80
2022/12/17 17:47:29;;;;;;;39.88;19.10;;;;;;;;;;5020602;28;20025;-82
2022/12/17 17:49:55;;;;;;;40.70;19.20;;;;;;;;;;5003185;28;20125;-82
2022/12/17 17:52:21;;;;;;;41.13;21.52;;;;;;;;;;5025170;28;20034;-80
2022/12/17 17:54:47;;;;;;;39.60;20.63;;;;;;;;;;5020088;28;20145;-80
2022/12/17 17:57:13;;;;;;;48.22;24.05;;;;;;;;;;5001591;28;20037;-81
2022/12/17 17:59:39;;;;;;;45.78;23.15;;;;;;;;;;5021334;28;20452;-80
2022/12/17 18:02:07;;;;;;;44.30;21.95;;;;;;;;;;5024834;28;20026;-81
2022/12/17 18:04:33;;;;;;;48.40;23.05;;;;;;;;;;5022640;28;20022;-81
2022/12/17 18:06:59;;;;;;;47.63;23.65;;;;;;;;;;5020831;28;20503;-81
2022/12/17 18:09:25;;;;;;;45.53;23.85;;;;;;;;;;5021467;28;20457;-80
2022/12/17 18:11:51;;;;;;;48.80;24.05;;;;;;;;;;5022552;28;20029;-80
2022/12/17 18:14:17;;;;;;;52.88;25.35;;;;;;;;;;5021118;28;20053;-80
2022/12/17 18:16:45;;;;;;;45.72;23.10;;;;;;;;;;5017687;28;20045;-80
2022/12/17 18:19:18;;;;;;;56.28;27.08;;;;;;;;;;5019248;28;20021;-80
2022/12/17 18:21:44;;;;;;;50.72;25.30;;;;;;;;;;5018856;28;20025;-81
2022/12/17 18:24:21;;;;;;;57.63;27.23;;;;;;;;;;5018696;28;20492;-79
2022/12/17 18:26:48;;;;;;;62.70;27.85;;;;;;;;;;5019328;28;20052;-80
2022/12/17 18:29:18;;;;;;;54.22;26.90;;;;;;;;;;5019789;28;20030;-82
2022/12/17 18:31:44;;;;;;;55.55;26.83;;;;;;;;;;5020536;28;20085;-80
2022/12/17 18:34:12;;;;;;;64.50;29.98;;;;;;;;;;5020068;28;20049;-79
2022/12/17 18:36:39;;;;;;;55.25;27.77;;;;;;;;;;5019229;28;20022;-81
2022/12/17 18:39:11;;;;;;;54.95;29.58;;;;;;;;;;5021279;28;20044;-81
2022/12/17 18:44:22;;;;;;;57.30;26.27;;;;;;;;;;5020464;28;20094;-82
2022/12/17 18:46:48;;;;;;;57.53;28.55;;;;;;;;;;5004555;28;20088;-81
2022/12/17 18:49:15;;;;;;;61.30;29.10;;;;;;;;;;5021646;28;20034;-80
2022/12/17 18:51:42;;;;;;;56.60;26.77;;;;;;;;;;5026903;28;20050;-80
2022/12/17 18:54:11;;;;;;;59.97;27.25;;;;;;;;;;5029560;28;20033;-80
2022/12/17 18:56:38;;;;;;;59.75;28.17;;;;;;;;;;5021705;28;20022;-82
2022/12/17 18:59:04;;;;;;;56.50;26.33;;;;;;;;;;5001477;28;20107;-82
2022/12/17 19:01:33;;;;;;;58.15;29.67;;;;;;;;;;5018495;28;20033;-80
2022/12/17 19:04:07;;;;;;;60.28;30.20;;;;;;;;;;5002358;28;20088;-83
2022/12/17 19:06:37;;;;;;;60.45;29.45;;;;;;;;;;4996374;28;20441;-81
2022/12/17 19:09:04;;;;;;;65.10;29.52;;;;;;;;;;5004844;28;20025;-80
2022/12/17 19:11:30;;;;;;;59.88;29.25;;;;;;;;;;5002723;28;20041;-83
2022/12/17 19:13:59;;;;;;;58.75;28.77;;;;;;;;;;5004967;28;20029;-82
2022/12/17 19:16:26;;;;;;;57.13;28.00;;;;;;;;;;5022329;28;20117;-79
2022/12/17 19:18:53;;;;;;;59.10;28.73;;;;;;;;;;5019241;28;20026;-80
2022/12/17 19:21:20;;;;;;;59.03;29.40;;;;;;;;;;5023060;28;20036;-80
2022/12/17 19:23:46;;;;;;;56.10;28.33;;;;;;;;;;5020508;28;20022;-81
2022/12/17 19:26:17;;;;;;;54.78;28.55;;;;;;;;;;5020382;28;20033;-82
2022/12/17 19:28:44;;;;;;;57.08;27.98;;;;;;;;;;5021067;28;20468;-82
2022/12/17 19:31:11;;;;;;;56.30;27.60;;;;;;;;;;5023132;28;20033;-82
2022/12/17 19:33:37;;;;;;;53.80;25.60;;;;;;;;;;5020800;28;20029;-81
2022/12/17 19:36:04;;;;;;;57.42;27.10;;;;;;;;;;5019788;28;20034;-82
2022/12/17 19:38:31;;;;;;;56.85;28.15;;;;;;;;;;5022236;28;20025;-81
2022/12/17 19:41:02;;;;;;;68.72;30.85;;;;;;;;;;5018502;28;20026;-82
2022/12/17 19:43:28;;;;;;;61.25;30.15;;;;;;;;;;5019044;28;20105;-81
2022/12/17 19:46:00;;;;;;;65.93;30.00;;;;;;;;;;5017534;28;20037;-80
2022/12/17 19:48:26;;;;;;;60.53;30.02;;;;;;;;;;5010989;28;20026;-81
2022/12/17 19:50:58;;;;;;;60.40;28.63;;;;;;;;;;5018710;28;20022;-80
2022/12/17 19:53:26;;;;;;;62.25;28.77;;;;;;;;;;5018651;28;20033;-81
2022/12/17 19:55:53;;;;;;;55.65;28.63;;;;;;;;;;5020001;28;20069;-81
2022/12/17 19:58:19;;;;;;;57.47;27.27;;;;;;;;;;5018560;28;20032;-81
2022/12/17 20:00:45;;;;;;;62.20;28.88;;;;;;;;;;5018307;28;20022;-81
2022/12/17 20:03:11;;;;;;;62.40;29.60;;;;;;;;;;5019163;28;20084;-82
2022/12/17 20:05:37;;;;;;;59.00;29.58;;;;;;;;;;5020449;28;20484;-81
2022/12/17 20:08:06;;;;;;;62.70;29.25;;;;;;;;;;5018562;28;20107;-82
2022/12/17 20:10:32;;;;;;;53.30;27.08;;;;;;;;;;5004919;28;20085;-82
2022/12/17 20:12:58;;;;;;;57.80;29.40;;;;;;;;;;5011211;28;20030;-81
2022/12/17 20:15:24;;;;;;;51.35;25.50;;;;;;;;;;5018326;28;20523;-82
2022/12/17 20:17:51;;;;;;;52.97;26.40;;;;;;;;;;5017255;28;20397;-82
2022/12/17 20:20:17;;;;;;;56.00;27.33;;;;;;;;;;5018610;28;20052;-82
2022/12/17 20:22:43;;;;;;;53.47;26.25;;;;;;;;;;5017135;28;20033;-80
2022/12/17 20:25:10;;;;;;;55.75;26.30;;;;;;;;;;5019270;28;20077;-81
2022/12/17 20:27:36;;;;;;;58.35;27.63;;;;;;;;;;5019582;28;20507;-80
2022/12/17 20:30:03;;;;;;;51.22;26.38;;;;;;;;;;5017379;28;20558;-81
2022/12/17 20:32:29;;;;;;;58.05;28.00;;;;;;;;;;4999762;28;20034;-82
2022/12/17 20:34:55;;;;;;;60.17;28.63;;;;;;;;;;5017902;28;20022;-81
2022/12/17 20:37:21;;;;;;;55.08;27.15;;;;;;;;;;5001169;28;20054;-82
2022/12/17 20:39:47;;;;;;;52.33;26.13;;;;;;;;;;5003218;28;20034;-81
2022/12/17 20:42:13;;;;;;;51.13;25.63;;;;;;;;;;5000116;28;20088;-81
2022/12/17 20:44:39;;;;;;;46.55;23.63;;;;;;;;;;5018084;28;20028;-82
2022/12/17 20:47:05;;;;;;;52.55;24.90;;;;;;;;;;5020396;28;20033;-80
2022/12/17 20:49:32;;;;;;;51.88;25.40;;;;;;;;;;5017455;28;20038;-82
2022/12/17 20:51:58;;;;;;;49.78;24.00;;;;;;;;;;5018465;28;20473;-81
2022/12/17 20:54:24;;;;;;;48.20;23.77;;;;;;;;;;5020480;28;20064;-81
2022/12/17 20:56:50;;;;;;;50.92;23.13;;;;;;;;;;5000173;28;20030;-80
2022/12/17 20:59:17;;;;;;;43.10;21.75;;;;;;;;;;5019403;28;20048;-81
2022/12/17 21:01:43;;;;;;;44.85;22.83;;;;;;;;;;5019749;28;20105;-82
2022/12/17 21:04:10;;;;;;;47.05;23.05;;;;;;;;;;5007235;28;20038;-82
2022/12/17 21:06:46;;;;;;;50.92;21.73;;;;;;;;;;5020535;28;20238;-81
2022/12/17 21:09:14;;;;;;;40.85;21.17;;;;;;;;;;5018181;28;20041;-82
2022/12/17 21:11:40;;;;;;;40.30;19.48;;;;;;;;;;5020175;28;20033;-80
2022/12/17 21:14:11;;;;;;;39.45;18.50;;;;;;;;;;5021244;28;20097;-80
2022/12/17 21:16:38;;;;;;;38.97;18.92;;;;;;;;;;5002023;28;20034;-82
2022/12/17 21:19:05;;;;;;;38.08;18.35;;;;;;;;;;5001365;28;20069;-82
2022/12/17 21:21:32;;;;;;;36.08;18.30;;;;;;;;;;5006773;28;20046;-81
2022/12/17 21:23:59;;;;;;;36.40;17.83;;;;;;;;;;5012949;28;20369;-80
2022/12/17 21:26:28;;;;;;;38.22;19.55;;;;;;;;;;5026214;28;20030;-80
2022/12/17 21:28:55;;;;;;;38.72;17.85;;;;;;;;;;5025360;28;20481;-81
2022/12/17 21:31:23;;;;;;;33.08;17.35;;;;;;;;;;5005987;28;20041;-79
2022/12/17 21:33:50;;;;;;;37.65;18.38;;;;;;;;;;5005105;28;20500;-80
2022/12/17 21:36:17;;;;;;;38.97;18.70;;;;;;;;;;5024598;28;20057;-81
2022/12/17 21:38:43;;;;;;;36.33;18.23;;;;;;;;;;5025141;28;20026;-81
2022/12/17 21:41:10;;;;;;;37.72;18.00;;;;;;;;;;5028495;28;20030;-81
2022/12/17 21:43:36;;;;;;;40.42;19.83;;;;;;;;;;5006617;28;20396;-78
2022/12/17 21:46:03;;;;;;;40.13;18.50;;;;;;;;;;5024721;28;20030;-81
2022/12/17 21:48:32;;;;;;;36.25;17.45;;;;;;;;;;5004340;28;20373;-79
2022/12/17 21:50:58;;;;;;;38.08;18.05;;;;;;;;;;5019630;28;20030;-81
2022/12/17 21:53:24;;;;;;;36.88;17.88;;;;;;;;;;4999878;28;20556;-81
2022/12/17 21:55:50;;;;;;;37.00;18.13;;;;;;;;;;5017688;28;20049;-81
2022/12/17 21:58:17;;;;;;;38.40;18.38;;;;;;;;;;5017382;28;20026;-81
2022/12/17 22:00:44;;;;;;;39.33;19.50;;;;;;;;;;5017214;28;20407;-82
2022/12/17 22:03:10;;;;;;;36.13;18.35;;;;;;;;;;5017439;28;20030;-82
2022/12/17 22:05:37;;;;;;;38.33;18.48;;;;;;;;;;5019414;28;20033;-82
2022/12/17 22:08:03;;;;;;;34.80;18.17;;;;;;;;;;5017637;28;20026;-80
2022/12/17 22:10:29;;;;;;;38.42;18.70;;;;;;;;;;5019617;28;20026;-81
2022/12/17 22:15:40;;;;;;;32.80;16.98;;;;;;;;;;5018506;28;20065;-81
2022/12/17 22:18:06;;;;;;;38.47;20.30;;;;;;;;;;5018908;28;20494;-79
2022/12/17 22:20:33;;;;;;;39.80;19.23;;;;;;;;;;5004359;28;20022;-81
2022/12/17 22:22:59;;;;;;;40.00;19.52;;;;;;;;;;5030090;28;20029;-82
2022/12/17 22:25:25;;;;;;;39.83;20.30;;;;;;;;;;5021846;28;20022;-80
2022/12/17 22:27:51;;;;;;;47.58;21.10;;;;;;;;;;5002182;28;20030;-81
2022/12/17 22:33:03;;;;;;;43.60;20.55;;;;;;;;;;5028977;28;20098;-80
2022/12/17 22:35:37;;;;;;;43.28;21.17;;;;;;;;;;5008734;28;20037;-80
2022/12/17 22:38:04;;;;;;;40.95;19.65;;;;;;;;;;5005038;28;20065;-80
2022/12/17 22:40:38;;;;;;;44.40;20.38;;;;;;;;;;4986465;28;20469;-79
2022/12/17 22:45:49;;;;;;;40.72;19.48;;;;;;;;;;5022673;28;20044;-81
2022/12/17 22:48:15;;;;;;;38.67;19.58;;;;;;;;;;5021747;28;20034;-83
2022/12/17 22:50:42;;;;;;;47.25;20.25;;;;;;;;;;5021919;28;20026;-81
2022/12/17 22:53:08;;;;;;;48.15;21.65;;;;;;;;;;5019825;28;20017;-82
2022/12/17 22:55:35;;;;;;;43.97;21.30;;;;;;;;;;5020348;28;20452;-83
2022/12/17 22:58:02;;;;;;;44.08;20.90;;;;;;;;;;5002319;28;20459;-80
2022/12/17 23:00:32;;;;;;;41.60;20.05;;;;;;;;;;5002461;28;20022;-83
2022/12/17 23:02:58;;;;;;;46.65;21.33;;;;;;;;;;5003032;28;20061;-82
2022/12/17 23:05:25;;;;;;;45.60;21.30;;;;;;;;;;5021881;28;20041;-81
2022/12/17 23:07:51;;;;;;;43.83;20.95;;;;;;;;;;5002563;28;20076;-81
2022/12/17 23:10:18;;;;;;;49.03;21.90;;;;;;;;;;5002430;28;20373;-81
2022/12/17 23:12:50;;;;;;;43.00;19.70;;;;;;;;;;5021789;28;20026;-81
2022/12/17 23:15:21;;;;;;;45.70;21.05;;;;;;;;;;5024181;28;20040;-81
2022/12/17 23:17:47;;;;;;;47.33;20.85;;;;;;;;;;5017575;28;20158;-80
2022/12/17 23:20:14;;;;;;;49.45;21.65;;;;;;;;;;5020154;28;20042;-81
2022/12/17 23:22:41;;;;;;;53.28;23.58;;;;;;;;;;5004725;28;20029;-81
2022/12/17 23:25:07;;;;;;;42.10;20.33;;;;;;;;;;5022196;28;20022;-80
2022/12/17 23:27:33;;;;;;;49.97;22.13;;;;;;;;;;5025203;28;20484;-80
2022/12/17 23:29:59;;;;;;;50.97;22.23;;;;;;;;;;5024108;28;20436;-80
2022/12/17 23:32:25;;;;;;;47.83;21.00;;;;;;;;;;5025007;28;20029;-79
2022/12/17 23:34:51;;;;;;;44.47;20.00;;;;;;;;;;5023595;28;20042;-79
2022/12/17 23:37:18;;;;;;;52.15;22.30;;;;;;;;;;5025344;28;20040;-79
2022/12/17 23:39:44;;;;;;;52.95;22.23;;;;;;;;;;5023116;28;20121;-79
2022/12/17 23:42:10;;;;;;;50.28;21.73;;;;;;;;;;5023234;28;20056;-80
2022/12/17 23:44:36;;;;;;;51.60;22.08;;;;;;;;;;5024940;28;20026;-79
2022/12/17 23:47:02;;;;;;;51.13;21.80;;;;;;;;;;5025571;28;20029;-79
2022/12/17 23:49:28;;;;;;;56.10;24.48;;;;;;;;;;5026761;28;20030;-78
2022/12/17 23:51:54;;;;;;;57.88;24.73;;;;;;;;;;5026321;28;20057;-80
2022/12/17 23:54:20;;;;;;;53.75;22.85;;;;;;;;;;5009089;28;20469;-80
2022/12/17 23:56:46;;;;;;;61.55;25.67;;;;;;;;;;5011078;28;20093;-80
2022/12/17 23:59:12;;;;;;;61.30;24.67;;;;;;;;;;5009076;28;20084;-80
